Time;durP1;ratioP1;P1;durP2;ratioP2;P2;SDS_P1;SDS_P2;PMS_P1;PMS_P2;Temp;Humidity;BMP_temperature;BMP_pressure;BME280_temperature;BME280_humidity;BME280_pressure;Samples;Min_cycle;Max_cycle;Signal;HPM_P1;HPM_P2
2021/11/19 00:01:19;;;;;;;1.52;0.50;;;22.80;45.60;;;;;;4968358;28;20718;-45
2021/11/19 00:03:52;;;;;;;1.05;0.40;;;22.80;45.80;;;;;;4966883;28;20288;-46
2021/11/19 00:09:01;;;;;;;1.83;0.50;;;22.80;45.80;;;;;;5370918;23;20237;-49
2021/11/19 00:11:34;;;;;;;1.40;0.35;;;22.90;45.70;;;;;;4949864;28;20194;-52
2021/11/19 00:14:06;;;;;;;0.98;0.38;;;22.90;45.70;;;;;;4954268;28;20237;-47
2021/11/19 00:16:37;;;;;;;0.22;0.22;;;23.00;45.90;;;;;;4970067;28;20205;-45
2021/11/19 00:19:10;;;;;;;1.30;0.50;;;23.00;45.90;;;;;;4970132;28;20643;-51
2021/11/19 00:21:42;;;;;;;0.57;0.38;;;23.10;45.90;;;;;;4970221;28;20637;-52
2021/11/19 00:24:13;;;;;;;0.93;0.43;;;23.10;45.80;;;;;;4971457;28;20222;-50
2021/11/19 00:26:44;;;;;;;1.45;0.50;;;23.20;45.70;;;;;;4970635;28;20198;-48
2021/11/19 00:29:15;;;;;;;0.73;0.35;;;23.20;45.50;;;;;;4971107;28;20204;-49
2021/11/19 00:31:47;;;;;;;0.95;0.22;;;23.30;45.40;;;;;;4971851;28;20614;-48
2021/11/19 00:34:19;;;;;;;1.33;0.30;;;23.30;45.10;;;;;;4968163;28;20235;-53
2021/11/19 00:36:55;;;;;;;1.50;0.60;;;23.30;44.90;;;;;;4970065;28;20194;-45
2021/11/19 00:39:26;;;;;;;0.38;0.30;;;23.40;44.80;;;;;;4970793;28;20221;-50
2021/11/19 00:41:57;;;;;;;5.43;0.55;;;23.40;44.70;;;;;;4969942;28;20715;-48
2021/11/19 00:44:28;;;;;;;0.88;0.30;;;23.50;44.80;;;;;;4970463;28;20214;-49
2021/11/19 00:46:59;;;;;;;0.32;0.30;;;23.50;44.80;;;;;;4970684;28;20560;-52
2021/11/19 00:49:35;;;;;;;0.60;0.40;;;23.60;44.70;;;;;;4970904;28;20213;-50
2021/11/19 00:52:08;;;;;;;0.40;0.30;;;23.60;44.40;;;;;;4970081;28;20277;-45
2021/11/19 00:54:39;;;;;;;0.98;0.40;;;23.60;44.40;;;;;;4970785;28;20236;-51
2021/11/19 00:57:11;;;;;;;0.30;0.30;;;23.60;44.30;;;;;;4970084;28;20194;-49
2021/11/19 00:59:43;;;;;;;0.82;0.50;;;23.70;44.30;;;;;;4970890;28;20659;-51
2021/11/19 01:02:15;;;;;;;1.42;0.50;;;23.70;44.30;;;;;;4971198;28;20194;-46
2021/11/19 01:04:47;;;;;;;0.82;0.25;;;23.70;44.50;;;;;;4971142;28;20301;-54
2021/11/19 01:07:19;;;;;;;3.92;0.57;;;23.80;44.60;;;;;;4971384;28;20230;-46
2021/11/19 01:09:52;;;;;;;2.60;0.40;;;23.80;41.60;;;;;;4970285;28;20281;-48
2021/11/19 01:12:25;;;;;;;1.40;0.40;;;23.80;40.50;;;;;;4970274;28;20230;-51
2021/11/19 01:14:59;;;;;;;1.75;0.38;;;23.90;41.10;;;;;;4970711;28;20217;-49
2021/11/19 01:17:32;;;;;;;0.60;0.30;;;23.90;41.10;;;;;;4970568;28;20198;-51
2021/11/19 01:20:10;;;;;;;1.88;0.82;;;24.00;41.60;;;;;;4970615;28;20277;-48
2021/11/19 01:22:42;;;;;;;1.67;0.40;;;24.00;41.20;;;;;;4968758;28;20281;-53
2021/11/19 01:25:16;;;;;;;1.85;0.50;;;24.10;41.00;;;;;;4969988;28;20217;-52
2021/11/19 01:27:47;;;;;;;2.25;0.50;;;24.10;41.00;;;;;;4970146;28;20191;-49
2021/11/19 01:30:21;;;;;;;3.60;0.50;;;24.10;41.10;;;;;;4970411;28;20200;-52
2021/11/19 01:32:52;;;;;;;1.00;0.45;;;24.20;41.30;;;;;;4968805;28;20217;-52
2021/11/19 01:35:24;;;;;;;3.70;0.43;;;24.20;41.30;;;;;;4952806;28;20214;-54
2021/11/19 01:37:56;;;;;;;1.00;0.40;;;24.30;41.30;;;;;;4969686;28;20202;-51
2021/11/19 01:40:29;;;;;;;2.25;0.60;;;24.30;41.50;;;;;;4970283;28;20221;-52
2021/11/19 01:43:02;;;;;;;1.33;0.50;;;24.30;41.30;;;;;;4968401;28;20208;-56
2021/11/19 01:45:36;;;;;;;2.40;0.68;;;24.30;41.50;;;;;;4970201;28;20218;-52
2021/11/19 01:48:09;;;;;;;0.98;0.38;;;24.40;41.70;;;;;;4969905;28;20202;-47
2021/11/19 01:50:45;;;;;;;2.90;0.52;;;24.40;41.70;;;;;;4969897;28;20203;-56
2021/11/19 01:53:19;;;;;;;1.15;0.38;;;24.40;41.90;;;;;;4969416;28;20221;-46
2021/11/19 01:55:54;;;;;;;1.95;0.40;;;24.50;42.60;;;;;;4964539;28;20228;-48
2021/11/19 01:58:28;;;;;;;2.40;0.40;;;24.50;42.20;;;;;;4969444;28;20201;-51
2021/11/19 02:01:05;;;;;;;1.15;0.40;;;24.50;41.70;;;;;;4970053;28;20292;-48
2021/11/19 02:03:38;;;;;;;0.63;0.35;;;24.60;41.60;;;;;;4969710;28;20200;-49
2021/11/19 02:06:19;;;;;;;0.30;0.30;;;24.60;41.60;;;;;;4969838;28;20333;-48
2021/11/19 02:08:50;;;;;;;1.55;0.40;;;24.70;41.50;;;;;;4970741;28;20202;-46
2021/11/19 02:11:41;;;;;;;1.10;0.60;;;24.70;41.40;;;;;;4969450;28;20724;-46
2021/11/19 02:14:22;;;;;;;1.55;0.35;;;24.80;41.10;;;;;;4969554;28;20225;-51
2021/11/19 02:16:56;;;;;;;0.70;0.40;;;24.80;41.20;;;;;;4968790;28;20206;-51
2021/11/19 02:19:30;;;;;;;1.20;0.30;;;24.90;41.50;;;;;;4969947;28;20194;-48
2021/11/19 02:22:06;;;;;;;0.75;0.40;;;24.90;41.50;;;;;;4970232;28;20627;-53
2021/11/19 02:24:41;;;;;;;1.65;0.40;;;24.90;42.00;;;;;;4969376;28;20214;-52
2021/11/19 02:27:14;;;;;;;0.30;0.20;;;25.00;41.40;;;;;;4962050;28;20616;-47
2021/11/19 02:29:49;;;;;;;0.30;0.30;;;25.00;41.20;;;;;;4969582;28;20204;-51
2021/11/19 02:32:22;;;;;;;0.57;0.50;;;25.00;41.20;;;;;;4969515;28;20204;-47
2021/11/19 02:34:53;;;;;;;0.65;0.30;;;25.10;41.40;;;;;;4969640;28;20230;-56
2021/11/19 02:37:29;;;;;;;1.05;0.45;;;25.10;41.30;;;;;;4960067;28;20204;-45
2021/11/19 02:40:03;;;;;;;0.55;0.40;;;25.10;41.00;;;;;;4967157;28;20569;-47
2021/11/19 02:42:38;;;;;;;0.85;0.40;;;25.20;41.10;;;;;;4968375;28;20193;-50
2021/11/19 02:45:10;;;;;;;0.95;0.50;;;25.20;41.00;;;;;;4969407;28;20712;-49
2021/11/19 02:47:41;;;;;;;1.08;0.50;;;25.30;41.00;;;;;;4968902;28;20194;-52
2021/11/19 02:50:13;;;;;;;0.63;0.20;;;25.30;41.00;;;;;;4969234;28;20198;-46
2021/11/19 02:52:48;;;;;;;2.92;0.40;;;25.40;41.00;;;;;;4968559;28;20190;-48
2021/11/19 02:55:19;;;;;;;0.68;0.30;;;25.40;40.90;;;;;;4969027;28;20293;-50
2021/11/19 02:57:50;;;;;;;3.97;0.30;;;25.40;41.00;;;;;;4955514;28;20236;-49
2021/11/19 03:00:23;;;;;;;0.60;0.30;;;25.50;40.90;;;;;;4968763;28;20365;-50
2021/11/19 03:02:54;;;;;;;1.17;0.40;;;25.50;40.90;;;;;;4969332;28;20289;-50
2021/11/19 03:05:27;;;;;;;0.82;0.20;;;25.50;40.80;;;;;;4969274;28;20266;-48
2021/11/19 03:08:00;;;;;;;0.50;0.30;;;25.60;40.80;;;;;;4967755;28;20230;-49
2021/11/19 03:10:34;;;;;;;2.78;0.50;;;25.60;40.70;;;;;;4969541;28;20277;-49
2021/11/19 03:13:06;;;;;;;1.25;0.40;;;25.70;40.80;;;;;;4968327;28;20198;-46
2021/11/19 03:15:39;;;;;;;0.95;0.30;;;25.70;41.00;;;;;;4967906;28;20225;-49
2021/11/19 03:18:11;;;;;;;0.20;0.20;;;25.70;41.00;;;;;;4968506;28;20204;-51
2021/11/19 03:20:42;;;;;;;2.13;0.45;;;25.80;41.10;;;;;;4967419;28;20686;-51
2021/11/19 03:23:15;;;;;;;1.13;0.20;;;25.80;40.90;;;;;;4968722;28;20245;-51
2021/11/19 03:25:46;;;;;;;2.05;0.40;;;25.80;40.60;;;;;;4969207;28;20297;-48
2021/11/19 03:28:19;;;;;;;0.20;0.20;;;25.80;40.40;;;;;;4960102;28;20203;-46
2021/11/19 03:30:53;;;;;;;1.10;0.50;;;25.90;40.30;;;;;;4966940;28;20195;-52
2021/11/19 03:33:25;;;;;;;0.32;0.20;;;25.90;40.40;;;;;;4966832;28;20281;-50
2021/11/19 03:35:56;;;;;;;0.38;0.25;;;26.00;40.30;;;;;;4968642;28;20225;-49
2021/11/19 03:38:32;;;;;;;1.02;0.30;;;26.00;40.10;;;;;;4968679;28;20289;-49
2021/11/19 03:41:03;;;;;;;0.52;0.38;;;26.00;39.90;;;;;;4968928;28;20277;-49
2021/11/19 03:43:35;;;;;;;0.55;0.20;;;26.10;39.90;;;;;;4967764;28;20286;-49
2021/11/19 03:46:13;;;;;;;0.32;0.20;;;26.10;40.00;;;;;;4968675;28;20205;-49
2021/11/19 03:48:44;;;;;;;1.65;0.47;;;26.10;39.90;;;;;;4971861;28;20305;-46
2021/11/19 03:51:17;;;;;;;0.98;0.40;;;26.20;40.10;;;;;;4970944;28;20190;-50
2021/11/19 03:53:49;;;;;;;0.73;0.38;;;26.20;40.00;;;;;;4972432;28;20313;-48
2021/11/19 03:56:20;;;;;;;0.30;0.30;;;26.20;40.00;;;;;;4953402;28;20651;-51
2021/11/19 03:58:52;;;;;;;0.25;0.22;;;26.20;40.00;;;;;;4970590;28;21284;-47
2021/11/19 04:01:26;;;;;;;1.00;0.40;;;26.20;40.20;;;;;;4964894;28;20831;-50
2021/11/19 04:03:57;;;;;;;2.80;0.47;;;26.30;40.10;;;;;;4971374;28;20285;-49
2021/11/19 04:06:27;;;;;;;3.88;0.75;;;26.30;40.00;;;;;;4971706;28;20305;-50
2021/11/19 04:09:00;;;;;;;2.42;0.63;;;26.30;39.70;;;;;;4972728;28;20293;-49
2021/11/19 04:11:30;;;;;;;6.15;0.50;;;26.40;39.90;;;;;;4970840;28;20640;-46
2021/11/19 04:14:01;;;;;;;3.20;0.65;;;26.40;40.00;;;;;;4971645;28;20230;-49
2021/11/19 04:16:34;;;;;;;6.95;0.70;;;26.40;39.90;;;;;;4972072;28;20281;-47
2021/11/19 04:19:05;;;;;;;5.43;0.80;;;26.50;39.70;;;;;;4971506;28;21858;-48
2021/11/19 04:21:36;;;;;;;7.60;0.80;;;26.50;39.70;;;;;;4971739;28;20297;-49
2021/11/19 04:24:10;;;;;;;4.95;0.60;;;26.50;39.40;;;;;;4971698;28;20221;-53
2021/11/19 04:26:41;;;;;;;2.40;0.50;;;26.50;39.20;;;;;;4971433;28;20662;-53
2021/11/19 04:29:11;;;;;;;3.20;0.70;;;26.60;39.30;;;;;;4971750;28;20213;-50
2021/11/19 04:31:42;;;;;;;2.65;0.60;;;26.60;39.20;;;;;;4960788;28;20198;-50
2021/11/19 04:34:14;;;;;;;3.00;0.60;;;26.70;39.20;;;;;;4971841;28;20228;-46
2021/11/19 04:36:44;;;;;;;5.00;0.60;;;26.70;39.00;;;;;;4971618;28;20190;-47
2021/11/19 04:39:17;;;;;;;2.63;0.63;;;26.70;39.00;;;;;;4971780;28;20611;-50
2021/11/19 04:41:49;;;;;;;2.83;0.55;;;26.70;38.90;;;;;;4963124;28;20627;-49
2021/11/19 04:44:20;;;;;;;2.78;0.85;;;26.80;38.80;;;;;;4970905;28;20226;-48
2021/11/19 04:46:51;;;;;;;2.53;0.52;;;26.80;38.80;;;;;;4969301;28;20205;-49
2021/11/19 04:49:22;;;;;;;2.95;0.55;;;26.80;38.90;;;;;;4971652;28;20208;-52
2021/11/19 04:51:52;;;;;;;5.15;0.75;;;26.80;38.70;;;;;;4970357;28;20198;-52
2021/11/19 04:54:25;;;;;;;2.40;0.52;;;26.90;38.80;;;;;;4970754;28;20234;-50
2021/11/19 04:56:57;;;;;;;1.52;0.60;;;26.90;38.80;;;;;;4969850;28;20281;-46
2021/11/19 04:59:28;;;;;;;4.88;0.57;;;26.90;38.80;;;;;;4969163;28;20791;-51
2021/11/19 05:02:03;;;;;;;2.17;0.30;;;26.90;38.90;;;;;;4957459;28;20326;-47
2021/11/19 05:04:33;;;;;;;2.53;0.45;;;26.90;38.90;;;;;;4958881;28;20219;-48
2021/11/19 05:07:04;;;;;;;1.83;0.45;;;27.00;38.80;;;;;;4969842;28;20294;-52
2021/11/19 05:09:36;;;;;;;1.67;0.43;;;27.00;38.70;;;;;;4974204;23;20222;-43
2021/11/19 05:12:10;;;;;;;1.38;0.52;;;27.00;38.40;;;;;;4948912;29;20282;-45
2021/11/19 05:14:41;;;;;;;2.13;0.50;;;27.00;38.20;;;;;;4959362;28;20312;-46
2021/11/19 05:17:13;;;;;;;1.92;0.40;;;27.00;38.10;;;;;;4968201;28;20700;-42
2021/11/19 05:19:43;;;;;;;1.45;0.40;;;27.00;38.00;;;;;;4970237;28;20198;-42
2021/11/19 05:22:14;;;;;;;1.95;0.40;;;27.00;37.90;;;;;;4969037;28;20282;-43
2021/11/19 05:24:49;;;;;;;1.17;0.40;;;27.00;37.90;;;;;;4969612;28;20724;-42
2021/11/19 05:27:20;;;;;;;0.82;0.32;;;27.00;37.80;;;;;;4968617;28;20194;-43
2021/11/19 05:29:51;;;;;;;1.58;0.45;;;27.00;37.90;;;;;;4967482;28;20198;-43
2021/11/19 05:32:23;;;;;;;1.33;0.50;;;27.00;38.00;;;;;;4962744;28;20599;-42
2021/11/19 05:34:54;;;;;;;2.22;0.40;;;27.10;37.90;;;;;;4957692;28;20233;-43
2021/11/19 05:37:24;;;;;;;2.15;0.40;;;27.00;37.90;;;;;;4969685;28;20201;-44
2021/11/19 05:39:56;;;;;;;1.25;0.30;;;27.10;38.00;;;;;;4969588;28;20191;-43
2021/11/19 05:42:27;;;;;;;1.30;0.35;;;27.00;37.80;;;;;;4968094;28;20230;-43
2021/11/19 05:44:58;;;;;;;2.08;0.35;;;27.10;37.80;;;;;;4969096;28;20226;-43
2021/11/19 05:47:28;;;;;;;0.93;0.47;;;27.10;37.70;;;;;;4968404;28;20277;-44
2021/11/19 05:50:00;;;;;;;1.02;0.45;;;27.10;37.60;;;;;;4965119;28;20210;-44
2021/11/19 05:52:31;;;;;;;1.17;0.38;;;27.10;37.60;;;;;;4969456;28;20202;-44
2021/11/19 05:55:03;;;;;;;0.90;0.40;;;27.10;37.60;;;;;;4969231;28;20332;-41
2021/11/19 05:57:33;;;;;;;1.15;0.47;;;27.10;37.40;;;;;;4969220;28;20307;-42
2021/11/19 06:00:05;;;;;;;2.28;0.40;;;27.10;37.30;;;;;;4969321;28;20998;-42
2021/11/19 06:02:35;;;;;;;1.75;0.40;;;27.20;37.20;;;;;;4970078;28;20645;-43
2021/11/19 06:05:07;;;;;;;2.70;0.50;;;27.10;37.00;;;;;;4954207;28;20296;-42
2021/11/19 06:07:37;;;;;;;0.93;0.30;;;27.10;36.90;;;;;;4969515;28;20925;-43
2021/11/19 06:10:12;;;;;;;0.82;0.30;;;27.10;36.90;;;;;;4969517;23;20310;-50
2021/11/19 06:12:45;;;;;;;2.30;0.60;;;27.10;36.80;;;;;;4949956;28;20249;-44
2021/11/19 06:15:19;;;;;;;1.45;0.43;;;27.10;36.80;;;;;;4963080;28;20225;-47
2021/11/19 06:17:52;;;;;;;2.55;0.40;;;27.10;36.70;;;;;;4969574;28;20200;-47
2021/11/19 06:20:27;;;;;;;0.43;0.30;;;27.10;36.70;;;;;;4968805;28;20214;-46
2021/11/19 06:23:02;;;;;;;2.00;0.57;;;27.10;36.80;;;;;;4969066;28;20209;-47
2021/11/19 06:25:37;;;;;;;1.85;0.38;;;27.10;37.00;;;;;;4969216;28;20296;-46
2021/11/19 06:28:10;;;;;;;1.73;0.40;;;27.10;36.90;;;;;;4967912;28;20198;-50
2021/11/19 06:30:41;;;;;;;0.75;0.30;;;27.10;36.90;;;;;;4968970;28;20225;-50
2021/11/19 06:33:11;;;;;;;2.30;0.50;;;27.10;36.90;;;;;;4969621;28;20203;-45
2021/11/19 06:35:42;;;;;;;0.70;0.30;;;27.20;37.00;;;;;;4963433;28;21163;-46
2021/11/19 06:38:12;;;;;;;0.70;0.30;;;27.10;37.00;;;;;;4969295;28;20205;-48
2021/11/19 06:40:45;;;;;;;1.05;0.40;;;27.20;37.10;;;;;;4968892;28;20224;-44
2021/11/19 06:43:16;;;;;;;1.75;0.50;;;27.20;37.00;;;;;;4967570;28;20294;-49
2021/11/19 06:45:46;;;;;;;0.95;0.45;;;27.20;36.90;;;;;;4969584;28;20296;-45
2021/11/19 06:48:16;;;;;;;1.58;0.57;;;27.20;36.80;;;;;;4969903;28;20285;-49
2021/11/19 06:50:48;;;;;;;2.33;0.60;;;27.20;36.90;;;;;;4968889;28;20210;-46
2021/11/19 06:53:20;;;;;;;0.73;0.35;;;27.20;36.90;;;;;;4969414;28;20190;-51
2021/11/19 06:55:52;;;;;;;3.95;0.70;;;27.20;36.90;;;;;;4968850;28;20284;-46
2021/11/19 06:58:23;;;;;;;1.38;0.50;;;27.20;36.80;;;;;;4967950;28;20631;-48
2021/11/19 07:00:54;;;;;;;3.78;0.80;;;27.20;36.90;;;;;;4969288;28;20202;-46
2021/11/19 07:03:24;;;;;;;2.25;0.47;;;27.10;36.90;;;;;;4969540;28;20195;-50
2021/11/19 07:05:55;;;;;;;1.60;0.40;;;27.10;36.90;;;;;;4966171;28;20226;-51
2021/11/19 07:08:31;;;;;;;1.20;0.50;;;27.10;37.00;;;;;;4957835;28;20285;-47
2021/11/19 07:11:06;;;;;;;0.80;0.30;;;27.10;37.10;;;;;;4968716;28;20202;-49
2021/11/19 07:13:36;;;;;;;2.10;0.40;;;27.10;37.10;;;;;;4967959;28;21857;-50
2021/11/19 07:16:08;;;;;;;1.60;0.50;;;27.10;37.20;;;;;;4968863;28;20317;-48
2021/11/19 07:18:39;;;;;;;1.02;0.38;;;27.10;37.20;;;;;;4969271;28;20309;-49
2021/11/19 07:21:09;;;;;;;1.35;0.60;;;27.10;37.30;;;;;;4967569;28;20667;-51
2021/11/19 07:23:39;;;;;;;3.45;0.40;;;27.10;37.20;;;;;;4972066;28;20615;-53
2021/11/19 07:26:12;;;;;;;1.08;0.30;;;27.00;37.20;;;;;;4972410;28;20551;-50
2021/11/19 07:28:43;;;;;;;1.98;0.55;;;27.00;37.10;;;;;;4971019;28;20313;-46
2021/11/19 07:31:14;;;;;;;1.42;0.68;;;27.00;37.10;;;;;;4972511;28;20221;-49
2021/11/19 07:33:45;;;;;;;2.13;0.50;;;27.00;37.10;;;;;;4973242;28;20225;-52
2021/11/19 07:36:16;;;;;;;13.65;1.88;;;26.90;36.80;;;;;;4972710;28;20217;-52
2021/11/19 07:38:47;;;;;;;17.65;2.17;;;26.90;36.80;;;;;;4964760;28;20194;-47
2021/11/19 07:41:21;;;;;;;13.05;1.48;;;26.90;36.10;;;;;;4972281;28;20281;-50
2021/11/19 07:43:52;;;;;;;9.52;1.58;;;26.80;35.80;;;;;;4963629;28;20207;-50
2021/11/19 07:46:25;;;;;;;11.48;1.40;;;26.80;36.00;;;;;;4972255;28;20281;-50
2021/11/19 07:48:56;;;;;;;10.40;1.60;;;26.80;36.10;;;;;;4972224;28;20194;-49
2021/11/19 07:51:29;;;;;;;8.13;1.20;;;26.70;36.10;;;;;;4971742;28;20229;-49
2021/11/19 07:54:00;;;;;;;10.02;1.20;;;26.60;36.10;;;;;;4971331;28;20305;-48
2021/11/19 07:56:34;;;;;;;8.30;1.17;;;26.60;36.30;;;;;;4972015;28;20237;-44
2021/11/19 07:59:07;;;;;;;4.47;0.88;;;26.60;36.40;;;;;;4971111;28;20194;-49
2021/11/19 08:01:39;;;;;;;7.18;0.90;;;26.50;36.40;;;;;;4972193;28;20225;-49
2021/11/19 08:04:09;;;;;;;7.20;1.50;;;26.50;36.60;;;;;;4972164;28;20229;-49
2021/11/19 08:06:41;;;;;;;6.05;1.15;;;26.50;36.60;;;;;;4972207;28;20617;-47
2021/11/19 08:09:12;;;;;;;6.85;0.88;;;26.50;36.60;;;;;;4964673;28;20380;-47
2021/11/19 08:11:44;;;;;;;6.35;0.90;;;26.40;36.60;;;;;;4964170;28;20277;-48
2021/11/19 08:14:15;;;;;;;7.18;1.13;;;26.40;36.70;;;;;;4971180;28;20214;-45
2021/11/19 08:16:48;;;;;;;8.40;1.10;;;26.30;36.70;;;;;;4971471;28;20312;-48
2021/11/19 08:19:24;;;;;;;5.20;0.80;;;26.30;36.70;;;;;;4972341;28;20286;-48
2021/11/19 08:21:55;;;;;;;6.35;0.82;;;26.20;36.50;;;;;;4971098;28;20305;-47
2021/11/19 08:24:27;;;;;;;4.32;0.88;;;26.20;36.60;;;;;;4971761;28;20224;-49
2021/11/19 08:27:05;;;;;;;4.78;1.00;;;26.20;36.70;;;;;;4971380;28;20198;-48
2021/11/19 08:29:40;;;;;;;4.13;0.80;;;26.20;36.80;;;;;;4970622;28;20285;-46
2021/11/19 08:32:12;;;;;;;4.60;1.00;;;26.10;36.90;;;;;;4970779;28;20280;-51
2021/11/19 08:34:43;;;;;;;4.10;0.73;;;26.10;37.00;;;;;;4970598;28;20301;-49
2021/11/19 08:37:14;;;;;;;5.50;0.85;;;26.10;37.00;;;;;;4971867;28;20197;-45
2021/11/19 08:39:44;;;;;;;4.07;0.80;;;26.00;37.10;;;;;;4971512;28;20619;-45
2021/11/19 08:42:18;;;;;;;5.78;0.95;;;26.00;37.20;;;;;;4960289;28;20646;-49
2021/11/19 08:44:50;;;;;;;5.13;0.85;;;25.90;37.20;;;;;;4962333;28;20236;-49
2021/11/19 08:47:22;;;;;;;7.47;1.15;;;25.90;37.40;;;;;;4970856;28;20315;-49
2021/11/19 08:49:53;;;;;;;14.00;1.80;;;25.90;37.50;;;;;;4971059;28;20200;-43
2021/11/19 08:52:25;;;;;;;11.82;1.63;;;25.80;37.50;;;;;;4970980;28;20624;-47
2021/11/19 08:54:55;;;;;;;12.48;1.65;;;25.80;38.10;;;;;;4971230;28;20230;-49
2021/11/19 08:57:29;;;;;;;12.32;1.50;;;25.80;37.60;;;;;;4970608;28;20813;-52
2021/11/19 08:59:59;;;;;;;11.13;1.50;;;25.70;37.70;;;;;;4970410;28;20791;-49
2021/11/19 09:02:30;;;;;;;8.18;1.60;;;25.70;37.90;;;;;;4970644;28;20773;-48
2021/11/19 09:05:01;;;;;;;7.85;1.63;;;25.70;38.20;;;;;;4970703;28;20214;-51
2021/11/19 09:07:34;;;;;;;12.80;1.55;;;25.60;38.30;;;;;;4971124;28;20277;-46
2021/11/19 09:10:06;;;;;;;8.73;1.80;;;25.60;38.50;;;;;;4971641;28;20202;-51
2021/11/19 09:12:38;;;;;;;7.78;2.40;;;25.60;39.10;;;;;;4965492;28;20209;-51
2021/11/19 09:15:11;;;;;;;7.68;1.55;;;25.50;38.90;;;;;;4970985;28;20308;-51
2021/11/19 09:18:02;;;;;;;7.65;2.10;;;25.50;38.80;;;;;;4966336;28;20751;-50
2021/11/19 09:20:43;;;;;;;13.82;2.45;;;25.40;38.80;;;;;;4964546;28;20210;-47
2021/11/19 09:23:17;;;;;;;8.35;2.13;;;25.40;39.00;;;;;;4968146;28;20727;-47
2021/11/19 09:25:49;;;;;;;9.95;1.98;;;25.30;38.90;;;;;;4967864;28;20302;-46
2021/11/19 09:28:22;;;;;;;7.43;2.40;;;25.30;38.90;;;;;;4966245;28;20288;-49
2021/11/19 09:30:56;;;;;;;9.25;2.67;;;25.30;39.10;;;;;;4964739;28;20735;-52
2021/11/19 09:33:27;;;;;;;7.55;2.63;;;25.30;39.20;;;;;;4962746;28;20625;-47
2021/11/19 09:35:58;;;;;;;7.40;2.47;;;25.20;39.20;;;;;;4966452;28;20241;-50
2021/11/19 09:38:30;;;;;;;11.20;2.65;;;25.20;39.30;;;;;;4965748;28;20208;-44
2021/11/19 09:41:27;;;;;;;12.23;3.28;;;25.20;39.30;;;;;;4964233;28;20718;-52
2021/11/19 09:44:24;;;;;;;12.30;3.38;;;25.10;39.40;;;;;;4959408;28;20274;-50
2021/11/19 09:47:29;;;;;;;12.13;3.58;;;25.10;39.70;;;;;;4967634;28;20190;-46
2021/11/19 09:50:36;;;;;;;10.10;3.10;;;25.10;39.80;;;;;;4919885;28;20313;-52
2021/11/19 09:54:03;;;;;;;7.25;3.60;;;25.10;39.80;;;;;;4968417;28;20909;-48
2021/11/19 09:56:44;;;;;;;11.50;3.55;;;25.00;39.90;;;;;;4967399;28;20222;-48
2021/11/19 09:59:24;;;;;;;9.82;3.40;;;25.00;39.90;;;;;;4967183;28;20689;-50
2021/11/19 10:02:31;;;;;;;12.05;3.55;;;24.90;39.90;;;;;;4969129;28;20808;-51
2021/11/19 10:05:24;;;;;;;8.15;3.33;;;24.90;39.90;;;;;;4961314;28;20243;-48
2021/11/19 10:08:15;;;;;;;8.70;3.33;;;24.80;40.00;;;;;;4967808;28;20190;-53
2021/11/19 10:11:08;;;;;;;10.15;3.65;;;24.80;40.00;;;;;;4967001;28;20207;-51
2021/11/19 10:13:58;;;;;;;10.80;3.58;;;24.70;40.00;;;;;;4964173;28;20206;-49
2021/11/19 10:16:55;;;;;;;10.32;3.72;;;24.70;40.10;;;;;;4963467;28;20762;-46
2021/11/19 10:19:28;;;;;;;11.82;3.40;;;24.70;40.00;;;;;;4964126;28;20222;-50
2021/11/19 10:22:21;;;;;;;7.22;3.28;;;24.70;40.00;;;;;;4966441;28;20730;-48
2021/11/19 10:24:55;;;;;;;8.00;2.92;;;24.60;40.00;;;;;;4965650;28;20280;-50
2021/11/19 10:27:28;;;;;;;8.05;3.42;;;24.60;40.00;;;;;;4959827;28;20280;-49
2021/11/19 10:30:03;;;;;;;9.52;3.22;;;24.60;40.00;;;;;;4966956;28;20201;-48
2021/11/19 10:32:36;;;;;;;6.53;2.83;;;24.50;40.00;;;;;;4967689;28;20770;-51
2021/11/19 10:35:34;;;;;;;8.07;3.25;;;24.50;40.00;;;;;;4967062;28;20221;-50
2021/11/19 10:38:36;;;;;;;10.45;3.22;;;24.50;40.00;;;;;;4960750;28;20205;-50
2021/11/19 10:41:28;;;;;;;7.93;3.15;;;24.50;40.00;;;;;;4964405;28;20216;-43
2021/11/19 10:44:21;;;;;;;8.57;2.95;;;24.40;40.00;;;;;;4958972;28;20293;-52
2021/11/19 10:47:27;;;;;;;6.15;2.67;;;24.40;40.00;;;;;;4966823;28;20242;-47
2021/11/19 10:50:43;;;;;;;7.95;3.13;;;24.30;40.00;;;;;;4960713;28;20209;-44
2021/11/19 10:53:49;;;;;;;6.35;2.90;;;24.30;40.00;;;;;;4876053;29;20220;-51
2021/11/19 10:56:45;;;;;;;6.80;2.55;;;24.20;39.90;;;;;;4965542;28;20222;-44
2021/11/19 10:59:38;;;;;;;5.43;2.10;;;24.20;39.90;;;;;;4967646;28;20281;-47
2021/11/19 11:02:36;;;;;;;6.47;2.97;;;24.20;39.90;;;;;;4970092;28;20194;-47
2021/11/19 11:05:28;;;;;;;5.43;2.53;;;24.10;39.90;;;;;;4966959;28;20580;-48
2021/11/19 11:08:22;;;;;;;5.40;2.35;;;24.10;39.90;;;;;;4964433;28;20201;-47
2021/11/19 11:10:55;;;;;;;7.18;2.50;;;24.00;39.80;;;;;;4971222;28;20213;-49
2021/11/19 11:13:34;;;;;;;5.57;2.58;;;24.00;39.80;;;;;;4960285;28;20213;-45
2021/11/19 11:16:07;;;;;;;5.53;2.78;;;24.00;39.80;;;;;;4972987;28;20304;-50
2021/11/19 11:18:40;;;;;;;5.03;2.42;;;24.00;39.90;;;;;;4971635;28;20208;-49
2021/11/19 11:21:26;;;;;;;4.30;2.08;;;24.00;39.90;;;;;;4958877;28;20302;-49
2021/11/19 11:24:19;;;;;;;4.72;2.50;;;23.90;39.90;;;;;;4958483;28;20198;-53
2021/11/19 11:26:53;;;;;;;5.63;2.65;;;23.80;39.90;;;;;;4958005;28;20722;-47
2021/11/19 11:29:45;;;;;;;4.50;2.20;;;23.80;39.90;;;;;;4951245;28;20203;-47
2021/11/19 11:32:30;;;;;;;3.95;2.15;;;23.80;39.90;;;;;;4971165;28;20225;-46
2021/11/19 11:35:17;;;;;;;5.95;2.70;;;23.80;39.90;;;;;;4970740;28;20797;-48
2021/11/19 11:38:00;;;;;;;5.10;2.25;;;23.70;39.90;;;;;;4968904;28;20312;-50
2021/11/19 11:40:40;;;;;;;5.15;2.22;;;23.70;39.90;;;;;;4956556;28;20206;-49
2021/11/19 11:43:23;;;;;;;4.30;2.30;;;23.70;40.00;;;;;;4962583;28;20280;-48
2021/11/19 11:45:55;;;;;;;6.53;2.20;;;23.70;40.00;;;;;;4973607;28;20300;-50
2021/11/19 11:48:35;;;;;;;3.15;1.85;;;23.60;39.90;;;;;;4957017;28;20282;-49
2021/11/19 11:51:12;;;;;;;3.75;1.95;;;23.60;39.90;;;;;;4956383;28;20198;-50
2021/11/19 11:53:54;;;;;;;4.80;2.20;;;23.50;39.90;;;;;;4955982;28;20202;-50
2021/11/19 11:56:30;;;;;;;4.82;2.17;;;23.50;40.00;;;;;;4956345;28;20229;-50
2021/11/19 11:59:06;;;;;;;5.30;2.25;;;23.50;40.00;;;;;;4956148;28;20237;-48
2021/11/19 12:01:43;;;;;;;3.30;1.80;;;23.50;40.00;;;;;;4956032;28;20289;-50
2021/11/19 12:04:23;;;;;;;4.03;2.10;;;23.40;40.00;;;;;;4955842;28;20305;-49
2021/11/19 12:06:58;;;;;;;3.38;1.77;;;23.40;40.00;;;;;;4956451;28;20263;-52
2021/11/19 12:09:35;;;;;;;2.53;1.60;;;23.40;40.00;;;;;;4956555;28;20289;-50
2021/11/19 12:12:30;;;;;;;3.58;1.90;;;23.40;40.00;;;;;;4956154;28;20651;-48
2021/11/19 12:15:15;;;;;;;4.15;1.83;;;23.30;39.90;;;;;;4955827;28;20258;-51
2021/11/19 12:18:04;;;;;;;2.60;1.38;;;23.30;40.00;;;;;;4955919;28;20318;-48
2021/11/19 12:20:49;;;;;;;2.70;1.50;;;23.30;40.00;;;;;;4956109;28;20207;-49
2021/11/19 12:23:33;;;;;;;2.50;1.42;;;23.30;40.00;;;;;;4955997;28;20203;-49
2021/11/19 12:26:39;;;;;;;2.88;1.60;;;23.20;39.90;;;;;;4955715;28;20775;-49
2021/11/19 12:29:18;;;;;;;3.42;1.23;;;23.20;40.00;;;;;;4955879;28;20815;-53
2021/11/19 12:31:56;;;;;;;2.67;1.10;;;23.20;40.00;;;;;;4955937;28;20298;-54
2021/11/19 12:34:31;;;;;;;2.13;1.20;;;23.10;39.90;;;;;;4955591;28;20680;-51
2021/11/19 12:37:05;;;;;;;2.95;1.52;;;23.10;40.00;;;;;;4955535;28;20789;-48
2021/11/19 12:39:38;;;;;;;3.00;1.40;;;23.10;40.00;;;;;;4956065;28;20356;-51
2021/11/19 12:42:16;;;;;;;2.53;1.27;;;23.00;40.00;;;;;;4955731;28;20290;-50
2021/11/19 12:45:12;;;;;;;2.35;1.65;;;23.00;40.00;;;;;;4973877;28;20326;-50
2021/11/19 12:48:13;;;;;;;2.35;1.20;;;23.00;40.00;;;;;;4973140;28;20194;-51
2021/11/19 12:50:47;;;;;;;2.95;1.20;;;23.00;40.00;;;;;;4958053;28;20198;-51
2021/11/19 12:53:37;;;;;;;3.95;1.40;;;23.00;40.10;;;;;;4974668;28;20202;-52
2021/11/19 12:56:17;;;;;;;2.30;1.00;;;22.90;40.00;;;;;;4974400;28;20281;-50
2021/11/19 12:58:50;;;;;;;2.42;1.40;;;22.90;40.00;;;;;;4970813;28;20277;-49
2021/11/19 13:01:33;;;;;;;2.20;1.15;;;22.90;40.20;;;;;;4974670;28;20284;-53
2021/11/19 13:04:26;;;;;;;1.98;1.20;;;22.90;40.20;;;;;;4974652;28;20297;-52
2021/11/19 13:07:09;;;;;;;2.53;1.25;;;22.80;40.20;;;;;;4971851;28;20293;-48
2021/11/19 13:10:05;;;;;;;2.15;1.23;;;22.80;40.20;;;;;;4975239;28;20298;-50
2021/11/19 13:12:58;;;;;;;1.65;1.15;;;22.80;40.20;;;;;;4974606;28;20631;-53
2021/11/19 13:15:38;;;;;;;2.55;1.10;;;22.80;40.20;;;;;;4973867;28;20313;-50
2021/11/19 13:18:39;;;;;;;2.17;1.00;;;22.70;40.80;;;;;;4954773;28;20630;-52
2021/11/19 13:21:31;;;;;;;2.67;1.00;;;22.70;40.20;;;;;;4954039;28;20281;-48
2021/11/19 13:24:23;;;;;;;2.10;1.17;;;22.70;40.20;;;;;;4954934;28;20254;-50
2021/11/19 13:26:55;;;;;;;1.38;0.80;;;22.70;40.20;;;;;;4954754;28;20205;-52
2021/11/19 13:29:50;;;;;;;2.70;1.20;;;22.60;40.20;;;;;;4954715;28;20290;-51
2021/11/19 13:32:55;;;;;;;1.27;0.77;;;22.60;40.20;;;;;;4955521;28;20238;-51
2021/11/19 13:36:06;;;;;;;2.63;1.10;;;22.60;40.20;;;;;;4954584;28;20219;-52